Terminal Aerodrome Forecast
Issued by NWS

Home | Current Version | Previous Version | Text Only | Print | Product List | Glossary On
Versions: 1 2 3 4 5 6 7 8 9 10 11 12
000
FTUS45 KLKN 180520
TAFWMC
TAF
KWMC 180520Z 1806/1906 12008KT P6SM SCT200
     FM181500 18011KT P6SM FEW100 SCT150
     FM181900 20018G28KT P6SM SCT100 BKN150
     FM190500 22013G20KT P6SM -SHRASN OVC035=

USA.gov is the U.S. government's official web portal to all federal, state and local government web resources and services.